Saeid Dejagah

Scout - Persepolis
3 Dez 2028
Sonntag
Verarbeitung

Persönlichkeit

Anpassungsfähigkeit (9) Ehrgeiz (5) Kontroverse (9) Loyalität (17) Druck (3) Professionalität (18) Fairness (14) Temperament (1)

Profil

Trainerstil Demokratisch
Lizenz Kontinentale B
Entschlossenheit 10
Menschenführung 4
Motivation 12
Disziplin 5
Arbeitszufriedenheit
100%
Ermüdung
0%
Rolle Scout
Gehalt 77.6K p/W
Vertrag 14.03.2029

Leistung

Verhalten Gut
Trainingseffektivität
29%
Spielerentwicklung
45%
Verletzungsprävention
25%
Taktische Umsetzung
40%

Letzte Ereignisse

Nahm an einer Scouting-Besprechung teil jetzt
Empfahl ein Transferziel jetzt
Empfahl ein Transferziel jetzt
Spieler begutachtet 7T her
Geburtstag 7T her
Spieler begutachtet 7T her
Spieler begutachtet 7T her
Spieler begutachtet 7T her

Aktuell beobachtet

117
Spieler Verein Status Fähigkeit Vertrauen Beobachtet Zuletzt beobachtet Letzte Stimme
Lautaro Porres Septemvri Aktiv 97 / 112 40% 3 29.11.2028 -
Shahriar Rezaeian Siah Jamegan Aktiv 124 / 128 40% 5 29.11.2028 -
Joe Whitworth Wigan Athletic Aktiv 132 / 123 40% 2 29.11.2028 -
Alexei Rojas Fedorushchenko Barrow AFC Aktiv 137 / 150 40% 3 28.11.2028 -
Diego Callai Sporting CP Aktiv 129 / 121 40% 1 28.11.2028 -
Jack Porter Port Vale Aktiv 116 / 109 40% 2 26.11.2028 -
Ifeanyi Emmanuel Niger Tornadoes Aktiv 106 / 113 40% 2 26.11.2028 -
Juan Pablo Insúa Barracas Central Aktiv 116 / 97 40% 1 26.11.2028 -
Kiyani Zeggen AZ Aktiv 140 / 145 40% 4 24.11.2028 -
Luke Faxon Sheffield United Aktiv 115 / 133 40% 1 24.11.2028 -
Nicholas Michalski Northampton Town Aktiv 117 / 137 40% 1 24.11.2028 -
Lautaro Herrera Estudiantes Aktiv 101 / 93 40% 3 23.11.2028 -
Enis Ujkaj Pescara Aktiv 130 / 136 40% 1 23.11.2028 -
Alexey Ploschadny Noah Aktiv 123 / 135 40% 1 21.11.2028 -
Halldór Snær Georgsson KR Aktiv 123 / 130 40% 1 21.11.2028 -
Antonio Carrera Falkenberg Aktiv 107 / 103 40% 3 19.11.2028 -
Lapo Nava Cremonese Aktiv 125 / 147 40% 1 19.11.2028 -
Nahuel González Alvarado Aktiv 108 / 121 40% 1 19.11.2028 -
Yeferson Cordova Llaneros Aktiv 102 / 123 40% 4 18.11.2028 -
Robert Cook Accrington Stanley Aktiv 111 / 117 40% 1 18.11.2028 -
James Beadle Hull City Aktiv 140 / 157 40% 2 17.11.2028 -
Jacopo Seghetti Empoli Aktiv 139 / 141 40% 1 17.11.2028 -
Frankarlos Benítez Caracas Aktiv 116 / 114 40% 1 17.11.2028 -
Álvaro Busso Vélez Aktiv 107 / 100 40% 4 15.11.2028 -
Nikita Korets Rubin Aktiv 106 / 117 40% 2 15.11.2028 -
Biola Sabitu Remo Stars Aktiv 114 / 122 40% 1 15.11.2028 -
Osnel García Trujillanos Aktiv 104 / 89 40% 1 09.11.2028 -
Dylan Moody Cheltenham Town Aktiv 128 / 147 40% 1 08.11.2028 -
Muhammadyusuf Sobirov Bunyodkor Aktiv 117 / 119 40% 1 08.10.2028 -
Tom Booth Oxford United Aktiv 118 / 117 40% 1 07.10.2028 -
Gerardo Díaz San Martín SJ Aktiv 114 / 97 40% 1 07.10.2028 -
Nazareno Durán Huracán Aktiv 124 / 121 40% 1 02.10.2028 -
Temirlan Anarbekov Kairat Aktiv 128 / 129 40% 1 02.10.2028 -
Javad Zergani Gostaresh Foulad Aktiv 100 / 105 52% 1 / 1m 06.09.2028 -
Rafael Perez Siah Jamegan Aktiv 74 / 79 30% 1 / 1m 06.09.2028 -
Omid Nourafkan Sepahan Verloren 124 / 135 79% 1 10.07.2028 -
Jayden Danns Bradford City Aktiv 143 / 145 40% 1 27.06.2028 -
Mohammad Reza Bordbar Sepahan Verloren 120 / 119 76% 1 12.06.2028 -
Saeid Pouraliganji Rah Ahan Aktiv 117 / 102 76% 1 17.01.2028 Befürworten
Zito Luvumbo Cagliari Aktiv 143 / 148 40% 1 31.12.2027 -
Patrick Agyemang Derby County Aktiv 140 / 141 40% 1 31.12.2027 -
Koffi Kouao Neftchi Aktiv 134 / 138 40% 3 05.12.2027 -
Matías Galarza Talleres Aktiv 124 / 120 40% 4 04.12.2027 -
Emanuel Coronel Rosario Central Aktiv 122 / 145 40% 3 04.12.2027 -
Marco Di Cesare Racing Club Aktiv 122 / 110 40% 3 28.11.2027 -
Jherson Mosquera Newell's Old Boys Verloren 128 / 116 40% 6 28.11.2027 -
Agustín Sández Newell's Old Boys Aktiv 127 / 124 40% 1 28.11.2027 -
Ignacio Rodríguez Racing Club Aktiv 121 / 126 40% 3 23.11.2027 -
Franco Díaz Temperley Aktiv 118 / 126 40% 3 23.11.2027 -
Aslak Fonn Witry Rosenborg Aktiv 136 / 143 40% 1 23.11.2027 -
Aarón Quiros Vélez Aktiv 123 / 112 40% 2 21.11.2027 -
Emil Breivik Molde Aktiv 143 / 120 40% 5 17.11.2027 -
José Florentín Independiente Rivadavia Aktiv 116 / 115 40% 1 17.11.2027 -
Santiago González Tigre Aktiv 129 / 120 40% 2 16.11.2027 -
José Alberti Wanderers Aktiv 118 / 139 40% 1 16.11.2027 -
Nicolás Tripichio San Lorenzo Aktiv 118 / 137 40% 3 14.11.2027 -
Sondre Brunstad Fet Bodo/Glimt Aktiv 123 / 137 40% 2 12.11.2027 -
Facundo Miño Deportivo Riestra Aktiv 117 / 113 40% 1 06.11.2027 -
Joaquín García Vélez Aktiv 121 / 141 40% 1 05.11.2027 -
Nazareno Colombo Racing Club Aktiv 122 / 136 40% 2 29.10.2027 -
Vicente Poggi Godoy Cruz Aktiv 133 / 130 40% 5 29.10.2027 -
Henrik Falchener Viking Aktiv 117 / 138 40% 1 29.10.2027 -
Gastón Benedetti Estudiantes Aktiv 122 / 128 40% 2 27.10.2027 -
Alexis Maldonado Belgrano Aktiv 122 / 126 40% 1 25.10.2027 -
Emanuel Mammana Vélez Aktiv 133 / 117 40% 2 24.10.2027 -
Fredrik Bjørkan Bodo/Glimt Aktiv 126 / 144 40% 2 24.10.2027 -
Ignacio Vázquez Platense Aktiv 131 / 143 40% 3 20.10.2027 -
Guillermo Enrique Huracán Aktiv 114 / 102 40% 2 18.10.2027 -
Franco Ibarra Rosario Central Aktiv 132 / 150 40% 1 17.10.2027 -
Sasha Marcich Lanús Aktiv 130 / 128 40% 1 17.10.2027 -
Lucas Carrizo Newell's Old Boys Aktiv 135 / 145 40% 1 11.10.2027 -
Emiliano Álvarez Progreso Aktiv 121 / 133 40% 2 10.10.2027 -
Gastón Hernández San Lorenzo Aktiv 138 / 129 40% 2 08.10.2027 -
Rodrigo Herrera Newell's Old Boys Aktiv 115 / 140 40% 1 06.10.2027 -
Adrián Sánchez Belgrano Aktiv 119 / 132 40% 3 04.10.2027 -
Felipe Peña Biafore Lanús Aktiv 137 / 130 40% 1 04.10.2027 -
Bruno Leyes Godoy Cruz Aktiv 126 / 139 40% 1 28.09.2027 -
César Ibáñez Huracán Aktiv 134 / 133 40% 1 25.09.2027 -
Nahitan Nández Bodo/Glimt Aktiv 135 / 156 40% 1 25.09.2027 -
Ignacio Perruzzi San Lorenzo Aktiv 117 / 122 40% 1 13.09.2027 -
Joe Gelhardt Hull City Aktiv 130 / 130 40% 7 30.05.2027 -
Nordi Mukiele Sunderland Aktiv 149 / 136 40% 2 30.05.2027 -
Max Bird Birmingham Aktiv 124 / 124 40% 2 30.05.2027 -
Alessio Zerbin Frosinone Verloren 133 / 119 40% 2 29.05.2027 -
Ali Ahmed Norwich City Aktiv 126 / 107 40% 1 22.05.2027 -
Tyrese Campbell Sheffield United Aktiv 136 / 146 40% 1 22.05.2027 -
Callum Brittain Middlesbrough Aktiv 126 / 149 40% 1 20.05.2027 -
Dennis Cirkin Queens Park Rangers Aktiv 122 / 123 40% 1 20.05.2027 -
Josh Murphy Portsmouth Aktiv 128 / 125 40% 1 17.05.2027 -
Rocco Vata Watford Aktiv 126 / 110 40% 1 15.05.2027 -
Jack Rudoni Coventry City Aktiv 128 / 122 40% 1 15.05.2027 -
Finn Azaz Southampton Aktiv 130 / 129 40% 5 07.05.2027 -
Azor Matusiwa Ipswich Town Aktiv 138 / 122 40% 2 07.05.2027 -
Nicolò Zaniolo Udinese Aktiv 137 / 124 40% 2 02.05.2027 -
Harry Wilson Leeds United Aktiv 141 / 153 40% 2 30.04.2027 -
Milan van Ewijk Coventry City Aktiv 142 / 143 40% 1 29.04.2027 -
Bobby Clark Derby County Aktiv 123 / 130 40% 2 27.04.2027 -
Max Johnston Derby County Aktiv 121 / 144 40% 1 26.04.2027 -
Oswin Appollis Orlando Pirates Aktiv 133 / 131 40% 1 21.04.2027 -
Daniel Kyerewaa Reading Aktiv 120 / 133 40% 1 21.04.2027 -
Jason Knight Bristol City Aktiv 123 / 130 40% 1 18.04.2027 -
Isaiah Jones Luton Town Aktiv 129 / 112 40% 3 17.04.2027 -
Samuel Edozie Southampton Aktiv 133 / 118 40% 1 17.04.2027 -
Cian Ashford Cardiff City Aktiv 122 / 100 40% 1 17.04.2027 -
Oladapo Afolayan Blackburn Rovers Aktiv 131 / 103 40% 1 16.04.2027 -
Mehdi Hashemnejad Tractor Aktiv 124 / 115 40% 1 16.04.2027 -
Nathan Broadhead Wrexham Aktiv 121 / 123 40% 2 14.04.2027 -
Welington Southampton Aktiv 140 / 145 40% 1 06.04.2027 -
Domagoj Drožđek Tractor Aktiv 122 / 113 40% 1 06.04.2027 -
Morgan Billiat SuperSport United Aktiv 120 / 103 40% 2 02.04.2027 -
Óscar Al-Diriyah Aktiv 127 / 119 40% 1 02.04.2027 -
Serginho Al Wasl Aktiv 131 / 122 40% 1 23.03.2027 -
Sorba Thomas Stoke City Aktiv 142 / 144 40% 1 23.03.2027 -
Bongani Zungu Ajax Cape Town Aktiv 134 / 109 40% 1 22.03.2027 -
Amir Mohammad Razzaghinia Esteghlal Aktiv 105 / 102 72% 1 03.08.2026 Befürworten
Kiril Despodov PAOK Aktiv 125 / 128 40% 1 01.08.2026 -
Hugo Cuypers Monterrey Aktiv 121 / 122 40% 1 01.08.2026 -